sensor_id;sensor_type;location;lat;lon;timestamp;temperature;humidity
27266;DHT22;14766;51.380;13.762;2023-02-19T00:01:36;12.20;74.70
27266;DHT22;14766;51.380;13.762;2023-02-19T00:04:06;12.20;74.70
27266;DHT22;14766;51.380;13.762;2023-02-19T00:06:34;12.20;74.60
27266;DHT22;14766;51.380;13.762;2023-02-19T00:09:01;12.20;74.60
27266;DHT22;14766;51.380;13.762;2023-02-19T00:11:31;12.30;74.60
27266;DHT22;14766;51.380;13.762;2023-02-19T00:14:00;12.20;74.50
27266;DHT22;14766;51.380;13.762;2023-02-19T00:16:32;12.20;74.50
27266;DHT22;14766;51.380;13.762;2023-02-19T00:19:01;12.20;74.40
27266;DHT22;14766;51.380;13.762;2023-02-19T00:21:28;12.20;74.30
27266;DHT22;14766;51.380;13.762;2023-02-19T00:23:58;12.20;74.30
27266;DHT22;14766;51.380;13.762;2023-02-19T00:26:26;12.20;74.20
27266;DHT22;14766;51.380;13.762;2023-02-19T00:28:55;12.20;74.30
27266;DHT22;14766;51.380;13.762;2023-02-19T00:31:27;12.20;74.50
27266;DHT22;14766;51.380;13.762;2023-02-19T00:34:00;12.20;74.70
27266;DHT22;14766;51.380;13.762;2023-02-19T00:36:32;12.20;74.80
27266;DHT22;14766;51.380;13.762;2023-02-19T00:39:02;12.20;74.90
27266;DHT22;14766;51.380;13.762;2023-02-19T00:41:30;12.20;75.00
27266;DHT22;14766;51.380;13.762;2023-02-19T00:44:03;12.20;75.10
27266;DHT22;14766;51.380;13.762;2023-02-19T00:46:36;12.20;75.10
27266;DHT22;14766;51.380;13.762;2023-02-19T00:49:05;12.30;75.20
27266;DHT22;14766;51.380;13.762;2023-02-19T00:51:35;12.30;75.10
27266;DHT22;14766;51.380;13.762;2023-02-19T00:54:04;12.30;75.00
27266;DHT22;14766;51.380;13.762;2023-02-19T00:56:32;12.30;75.00
27266;DHT22;14766;51.380;13.762;2023-02-19T00:58:59;12.30;74.80
27266;DHT22;14766;51.380;13.762;2023-02-19T01:01:26;12.30;74.70
27266;DHT22;14766;51.380;13.762;2023-02-19T01:03:53;12.30;74.70
27266;DHT22;14766;51.380;13.762;2023-02-19T01:06:21;12.30;74.70
27266;DHT22;14766;51.380;13.762;2023-02-19T01:08:48;12.30;74.70
27266;DHT22;14766;51.380;13.762;2023-02-19T01:11:16;12.30;74.70
27266;DHT22;14766;51.380;13.762;2023-02-19T01:13:43;12.30;74.60
27266;DHT22;14766;51.380;13.762;2023-02-19T01:16:13;12.30;74.60
27266;DHT22;14766;51.380;13.762;2023-02-19T01:18:43;12.30;74.60
27266;DHT22;14766;51.380;13.762;2023-02-19T01:21:16;12.30;74.60
27266;DHT22;14766;51.380;13.762;2023-02-19T01:23:45;12.30;74.50
27266;DHT22;14766;51.380;13.762;2023-02-19T01:26:15;12.40;74.40
27266;DHT22;14766;51.380;13.762;2023-02-19T01:28:42;12.30;74.20
27266;DHT22;14766;51.380;13.762;2023-02-19T01:31:13;12.30;74.10
27266;DHT22;14766;51.380;13.762;2023-02-19T01:33:45;12.40;74.00
27266;DHT22;14766;51.380;13.762;2023-02-19T01:36:12;12.30;73.90
27266;DHT22;14766;51.380;13.762;2023-02-19T01:38:40;12.30;73.90
27266;DHT22;14766;51.380;13.762;2023-02-19T01:41:13;12.30;73.90
27266;DHT22;14766;51.380;13.762;2023-02-19T01:44:04;12.30;73.90
27266;DHT22;14766;51.380;13.762;2023-02-19T01:46:39;12.30;73.80
27266;DHT22;14766;51.380;13.762;2023-02-19T01:49:17;12.30;73.80
27266;DHT22;14766;51.380;13.762;2023-02-19T01:54:27;12.30;73.90
27266;DHT22;14766;51.380;13.762;2023-02-19T01:56:57;12.30;74.00
27266;DHT22;14766;51.380;13.762;2023-02-19T01:59:25;12.30;74.00
27266;DHT22;14766;51.380;13.762;2023-02-19T02:01:52;12.20;73.90
27266;DHT22;14766;51.380;13.762;2023-02-19T02:04:19;12.30;74.00
27266;DHT22;14766;51.380;13.762;2023-02-19T02:06:55;12.30;74.00
27266;DHT22;14766;51.380;13.762;2023-02-19T02:09:26;12.30;74.20
27266;DHT22;14766;51.380;13.762;2023-02-19T02:12:13;12.20;74.30
27266;DHT22;14766;51.380;13.762;2023-02-19T02:14:43;12.20;74.60
27266;DHT22;14766;51.380;13.762;2023-02-19T02:17:17;12.20;74.80
27266;DHT22;14766;51.380;13.762;2023-02-19T02:22:53;12.20;75.00
27266;DHT22;14766;51.380;13.762;2023-02-19T02:34:18;12.20;75.60
27266;DHT22;14766;51.380;13.762;2023-02-19T02:36:50;12.10;75.80
27266;DHT22;14766;51.380;13.762;2023-02-19T02:39:21;12.10;76.10
27266;DHT22;14766;51.380;13.762;2023-02-19T02:41:53;12.10;76.20
27266;DHT22;14766;51.380;13.762;2023-02-19T02:44:46;12.10;76.60
27266;DHT22;14766;51.380;13.762;2023-02-19T02:47:49;12.10;77.00
27266;DHT22;14766;51.380;13.762;2023-02-19T02:50:25;12.10;77.40
27266;DHT22;14766;51.380;13.762;2023-02-19T02:52:59;12.10;77.70
27266;DHT22;14766;51.380;13.762;2023-02-19T02:55:49;12.10;77.90
27266;DHT22;14766;51.380;13.762;2023-02-19T02:58:18;12.00;78.20
27266;DHT22;14766;51.380;13.762;2023-02-19T03:00:53;11.90;78.20
27266;DHT22;14766;51.380;13.762;2023-02-19T03:03:42;11.90;78.20
27266;DHT22;14766;51.380;13.762;2023-02-19T03:06:13;12.00;78.50
27266;DHT22;14766;51.380;13.762;2023-02-19T03:08:55;11.90;78.80
27266;DHT22;14766;51.380;13.762;2023-02-19T03:11:24;11.80;79.00
27266;DHT22;14766;51.380;13.762;2023-02-19T03:14:20;11.80;79.10
27266;DHT22;14766;51.380;13.762;2023-02-19T03:17:15;11.80;79.00
27266;DHT22;14766;51.380;13.762;2023-02-19T03:20:06;11.80;79.10
27266;DHT22;14766;51.380;13.762;2023-02-19T03:22:36;11.80;78.90
27266;DHT22;14766;51.380;13.762;2023-02-19T03:25:25;11.80;78.90
27266;DHT22;14766;51.380;13.762;2023-02-19T03:28:16;11.80;78.80
27266;DHT22;14766;51.380;13.762;2023-02-19T03:30:50;11.70;78.60
27266;DHT22;14766;51.380;13.762;2023-02-19T03:33:22;11.70;78.50
27266;DHT22;14766;51.380;13.762;2023-02-19T03:35:54;11.70;78.50
27266;DHT22;14766;51.380;13.762;2023-02-19T03:41:15;11.70;78.50
27266;DHT22;14766;51.380;13.762;2023-02-19T03:44:24;11.70;78.40
27266;DHT22;14766;51.380;13.762;2023-02-19T03:47:01;11.70;78.30
27266;DHT22;14766;51.380;13.762;2023-02-19T03:49:40;11.70;78.20
27266;DHT22;14766;51.380;13.762;2023-02-19T03:52:40;11.70;78.10
27266;DHT22;14766;51.380;13.762;2023-02-19T04:00:48;11.70;78.30
27266;DHT22;14766;51.380;13.762;2023-02-19T04:03:51;11.70;78.30
27266;DHT22;14766;51.380;13.762;2023-02-19T04:06:25;11.60;78.30
27266;DHT22;14766;51.380;13.762;2023-02-19T04:08:55;11.60;78.40
27266;DHT22;14766;51.380;13.762;2023-02-19T04:11:26;11.60;78.50
27266;DHT22;14766;51.380;13.762;2023-02-19T04:14:09;11.60;78.60
27266;DHT22;14766;51.380;13.762;2023-02-19T04:16:41;11.60;78.70
27266;DHT22;14766;51.380;13.762;2023-02-19T04:19:13;11.60;78.80
27266;DHT22;14766;51.380;13.762;2023-02-19T04:21:43;11.60;78.80
27266;DHT22;14766;51.380;13.762;2023-02-19T04:24:15;11.60;78.90
27266;DHT22;14766;51.380;13.762;2023-02-19T04:26:45;11.60;79.10
27266;DHT22;14766;51.380;13.762;2023-02-19T04:29:12;11.60;79.00
27266;DHT22;14766;51.380;13.762;2023-02-19T04:31:39;11.60;79.30
27266;DHT22;14766;51.380;13.762;2023-02-19T04:34:06;11.60;79.10
27266;DHT22;14766;51.380;13.762;2023-02-19T04:36:33;11.60;79.00
27266;DHT22;14766;51.380;13.762;2023-02-19T04:39:01;11.60;79.00
27266;DHT22;14766;51.380;13.762;2023-02-19T04:41:28;11.70;79.00
27266;DHT22;14766;51.380;13.762;2023-02-19T04:43:55;11.70;79.00
27266;DHT22;14766;51.380;13.762;2023-02-19T04:46:22;11.70;78.90
27266;DHT22;14766;51.380;13.762;2023-02-19T04:48:49;11.70;78.80
27266;DHT22;14766;51.380;13.762;2023-02-19T04:51:16;11.70;78.70
27266;DHT22;14766;51.380;13.762;2023-02-19T04:53:43;11.70;78.60
27266;DHT22;14766;51.380;13.762;2023-02-19T04:56:14;11.80;78.70
27266;DHT22;14766;51.380;13.762;2023-02-19T04:58:42;11.80;78.70
27266;DHT22;14766;51.380;13.762;2023-02-19T05:01:10;11.80;78.70
27266;DHT22;14766;51.380;13.762;2023-02-19T05:03:37;11.80;78.90
27266;DHT22;14766;51.380;13.762;2023-02-19T05:06:07;11.80;78.80
27266;DHT22;14766;51.380;13.762;2023-02-19T05:08:35;11.80;78.70
27266;DHT22;14766;51.380;13.762;2023-02-19T05:11:04;11.80;79.10
27266;DHT22;14766;51.380;13.762;2023-02-19T05:13:32;11.80;79.00
27266;DHT22;14766;51.380;13.762;2023-02-19T05:16:02;11.80;79.10
27266;DHT22;14766;51.380;13.762;2023-02-19T05:18:31;11.80;79.20
27266;DHT22;14766;51.380;13.762;2023-02-19T05:20:58;11.80;79.00
27266;DHT22;14766;51.380;13.762;2023-02-19T05:23:26;11.80;79.10
27266;DHT22;14766;51.380;13.762;2023-02-19T05:25:53;11.80;79.10
27266;DHT22;14766;51.380;13.762;2023-02-19T05:28:20;11.80;78.90
27266;DHT22;14766;51.380;13.762;2023-02-19T05:30:55;11.80;78.90
27266;DHT22;14766;51.380;13.762;2023-02-19T05:33:24;11.80;78.70
27266;DHT22;14766;51.380;13.762;2023-02-19T05:35:53;11.80;78.60
27266;DHT22;14766;51.380;13.762;2023-02-19T05:38:22;11.80;78.60
27266;DHT22;14766;51.380;13.762;2023-02-19T05:40:50;11.80;78.50
27266;DHT22;14766;51.380;13.762;2023-02-19T05:43:23;11.80;78.60
27266;DHT22;14766;51.380;13.762;2023-02-19T05:45:50;11.80;78.60
27266;DHT22;14766;51.380;13.762;2023-02-19T05:48:17;11.80;78.60
27266;DHT22;14766;51.380;13.762;2023-02-19T05:50:44;11.80;78.60
27266;DHT22;14766;51.380;13.762;2023-02-19T05:53:11;11.80;78.60
27266;DHT22;14766;51.380;13.762;2023-02-19T05:55:38;11.80;78.50
27266;DHT22;14766;51.380;13.762;2023-02-19T05:58:05;11.80;78.70
27266;DHT22;14766;51.380;13.762;2023-02-19T06:00:33;11.80;78.60
27266;DHT22;14766;51.380;13.762;2023-02-19T06:03:00;11.80;78.60
27266;DHT22;14766;51.380;13.762;2023-02-19T06:05:27;11.80;78.60
27266;DHT22;14766;51.380;13.762;2023-02-19T06:07:54;11.80;78.70
27266;DHT22;14766;51.380;13.762;2023-02-19T06:10:21;11.80;78.60
27266;DHT22;14766;51.380;13.762;2023-02-19T06:12:52;11.70;78.50
27266;DHT22;14766;51.380;13.762;2023-02-19T06:15:19;11.80;78.40
27266;DHT22;14766;51.380;13.762;2023-02-19T06:17:47;11.80;78.50
27266;DHT22;14766;51.380;13.762;2023-02-19T06:20:14;11.80;78.20
27266;DHT22;14766;51.380;13.762;2023-02-19T06:22:42;11.70;77.20
27266;DHT22;14766;51.380;13.762;2023-02-19T06:25:09;11.70;76.20
27266;DHT22;14766;51.380;13.762;2023-02-19T06:27:38;11.60;75.60
27266;DHT22;14766;51.380;13.762;2023-02-19T06:30:06;11.50;75.10
27266;DHT22;14766;51.380;13.762;2023-02-19T06:32:33;11.50;74.80
27266;DHT22;14766;51.380;13.762;2023-02-19T06:35:01;11.40;74.90
27266;DHT22;14766;51.380;13.762;2023-02-19T06:37:28;11.40;74.90
27266;DHT22;14766;51.380;13.762;2023-02-19T06:39:55;11.30;74.90
27266;DHT22;14766;51.380;13.762;2023-02-19T06:42:22;11.20;74.50
27266;DHT22;14766;51.380;13.762;2023-02-19T06:44:49;11.20;74.20
27266;DHT22;14766;51.380;13.762;2023-02-19T06:47:16;11.10;73.90
27266;DHT22;14766;51.380;13.762;2023-02-19T06:49:43;11.00;73.50
27266;DHT22;14766;51.380;13.762;2023-02-19T06:52:10;11.00;73.30
27266;DHT22;14766;51.380;13.762;2023-02-19T06:54:37;10.90;73.30
27266;DHT22;14766;51.380;13.762;2023-02-19T06:57:04;10.90;73.50
27266;DHT22;14766;51.380;13.762;2023-02-19T06:59:32;10.80;73.60
27266;DHT22;14766;51.380;13.762;2023-02-19T07:01:59;10.70;73.60
27266;DHT22;14766;51.380;13.762;2023-02-19T07:04:26;10.70;73.30
27266;DHT22;14766;51.380;13.762;2023-02-19T07:06:53;10.70;73.50
27266;DHT22;14766;51.380;13.762;2023-02-19T07:09:20;10.70;73.80
27266;DHT22;14766;51.380;13.762;2023-02-19T07:11:47;10.60;73.50
27266;DHT22;14766;51.380;13.762;2023-02-19T07:14:16;10.60;73.20
27266;DHT22;14766;51.380;13.762;2023-02-19T07:16:43;10.60;73.30
27266;DHT22;14766;51.380;13.762;2023-02-19T07:19:10;10.60;74.40
27266;DHT22;14766;51.380;13.762;2023-02-19T07:21:37;10.50;73.40
27266;DHT22;14766;51.380;13.762;2023-02-19T07:24:05;10.50;73.30
27266;DHT22;14766;51.380;13.762;2023-02-19T07:26:32;10.50;73.00
27266;DHT22;14766;51.380;13.762;2023-02-19T07:29:00;10.50;72.80
27266;DHT22;14766;51.380;13.762;2023-02-19T07:31:29;10.50;72.40
27266;DHT22;14766;51.380;13.762;2023-02-19T07:33:57;10.40;72.30
27266;DHT22;14766;51.380;13.762;2023-02-19T07:36:24;10.40;72.20
27266;DHT22;14766;51.380;13.762;2023-02-19T07:38:53;10.40;72.00
27266;DHT22;14766;51.380;13.762;2023-02-19T07:41:21;10.40;72.10
27266;DHT22;14766;51.380;13.762;2023-02-19T07:43:49;10.30;72.30
27266;DHT22;14766;51.380;13.762;2023-02-19T07:46:16;10.30;72.30
27266;DHT22;14766;51.380;13.762;2023-02-19T07:48:43;10.30;72.20
27266;DHT22;14766;51.380;13.762;2023-02-19T07:51:13;10.30;71.90
27266;DHT22;14766;51.380;13.762;2023-02-19T07:53:46;10.20;71.70
27266;DHT22;14766;51.380;13.762;2023-02-19T07:56:13;10.20;71.60
27266;DHT22;14766;51.380;13.762;2023-02-19T07:58:41;10.20;71.70
27266;DHT22;14766;51.380;13.762;2023-02-19T08:01:14;10.20;71.90
27266;DHT22;14766;51.380;13.762;2023-02-19T08:03:42;10.10;72.00
27266;DHT22;14766;51.380;13.762;2023-02-19T08:06:10;10.10;72.00
27266;DHT22;14766;51.380;13.762;2023-02-19T08:08:38;10.10;71.50
27266;DHT22;14766;51.380;13.762;2023-02-19T08:11:06;10.00;71.00
27266;DHT22;14766;51.380;13.762;2023-02-19T08:13:52;9.90;70.60
27266;DHT22;14766;51.380;13.762;2023-02-19T08:16:19;9.90;70.60
27266;DHT22;14766;51.380;13.762;2023-02-19T08:19:03;9.80;70.50
27266;DHT22;14766;51.380;13.762;2023-02-19T08:21:30;9.80;70.80
27266;DHT22;14766;51.380;13.762;2023-02-19T08:24:00;9.70;70.80
27266;DHT22;14766;51.380;13.762;2023-02-19T08:26:27;9.70;70.90
27266;DHT22;14766;51.380;13.762;2023-02-19T08:28:54;9.70;70.90
27266;DHT22;14766;51.380;13.762;2023-02-19T08:31:21;9.70;70.80
27266;DHT22;14766;51.380;13.762;2023-02-19T08:33:48;9.60;70.40
27266;DHT22;14766;51.380;13.762;2023-02-19T08:36:15;9.60;70.20
27266;DHT22;14766;51.380;13.762;2023-02-19T08:38:43;9.60;70.40
27266;DHT22;14766;51.380;13.762;2023-02-19T08:41:12;9.50;70.70
27266;DHT22;14766;51.380;13.762;2023-02-19T08:43:41;9.60;71.00
27266;DHT22;14766;51.380;13.762;2023-02-19T08:46:09;9.50;70.60
27266;DHT22;14766;51.380;13.762;2023-02-19T08:48:38;9.50;70.30
27266;DHT22;14766;51.380;13.762;2023-02-19T08:51:08;9.50;70.50
27266;DHT22;14766;51.380;13.762;2023-02-19T08:53:37;9.50;70.60
27266;DHT22;14766;51.380;13.762;2023-02-19T08:56:13;9.50;70.60
27266;DHT22;14766;51.380;13.762;2023-02-19T08:58:40;9.50;70.60
27266;DHT22;14766;51.380;13.762;2023-02-19T09:01:13;9.50;70.70
27266;DHT22;14766;51.380;13.762;2023-02-19T09:03:42;9.50;71.10
27266;DHT22;14766;51.380;13.762;2023-02-19T09:06:14;9.50;71.00
27266;DHT22;14766;51.380;13.762;2023-02-19T09:08:42;9.50;71.10
27266;DHT22;14766;51.380;13.762;2023-02-19T09:11:11;9.50;71.10
27266;DHT22;14766;51.380;13.762;2023-02-19T09:13:39;9.50;71.00
27266;DHT22;14766;51.380;13.762;2023-02-19T09:16:06;9.50;70.80
27266;DHT22;14766;51.380;13.762;2023-02-19T09:18:33;9.50;70.30
27266;DHT22;14766;51.380;13.762;2023-02-19T09:21:03;9.60;70.40
27266;DHT22;14766;51.380;13.762;2023-02-19T09:23:35;9.60;70.30
27266;DHT22;14766;51.380;13.762;2023-02-19T09:26:04;9.60;70.70
27266;DHT22;14766;51.380;13.762;2023-02-19T09:28:33;9.60;70.70
27266;DHT22;14766;51.380;13.762;2023-02-19T09:31:12;9.60;70.70
27266;DHT22;14766;51.380;13.762;2023-02-19T09:33:47;9.60;70.70
27266;DHT22;14766;51.380;13.762;2023-02-19T09:36:16;9.70;70.80
27266;DHT22;14766;51.380;13.762;2023-02-19T09:38:45;9.70;71.00
27266;DHT22;14766;51.380;13.762;2023-02-19T09:41:41;9.80;71.00
27266;DHT22;14766;51.380;13.762;2023-02-19T09:44:15;9.80;70.80
27266;DHT22;14766;51.380;13.762;2023-02-19T09:46:49;9.90;70.80
27266;DHT22;14766;51.380;13.762;2023-02-19T09:49:25;9.90;70.50
27266;DHT22;14766;51.380;13.762;2023-02-19T09:52:02;10.00;71.00
27266;DHT22;14766;51.380;13.762;2023-02-19T09:54:33;10.10;70.80
27266;DHT22;14766;51.380;13.762;2023-02-19T09:57:02;10.20;70.40
27266;DHT22;14766;51.380;13.762;2023-02-19T09:59:45;10.30;70.10
27266;DHT22;14766;51.380;13.762;2023-02-19T10:02:15;10.30;69.40
27266;DHT22;14766;51.380;13.762;2023-02-19T10:04:44;10.40;69.40
27266;DHT22;14766;51.380;13.762;2023-02-19T10:07:24;10.40;69.20
27266;DHT22;14766;51.380;13.762;2023-02-19T10:09:58;10.40;69.20
27266;DHT22;14766;51.380;13.762;2023-02-19T10:12:29;10.40;69.90
27266;DHT22;14766;51.380;13.762;2023-02-19T10:15:25;10.40;68.80
27266;DHT22;14766;51.380;13.762;2023-02-19T10:17:54;10.50;68.50
27266;DHT22;14766;51.380;13.762;2023-02-19T10:20:23;10.60;68.60
27266;DHT22;14766;51.380;13.762;2023-02-19T10:23:02;10.50;68.70
27266;DHT22;14766;51.380;13.762;2023-02-19T10:25:31;10.60;68.70
27266;DHT22;14766;51.380;13.762;2023-02-19T10:27:59;10.60;68.90
27266;DHT22;14766;51.380;13.762;2023-02-19T10:30:33;10.60;69.10
27266;DHT22;14766;51.380;13.762;2023-02-19T10:33:15;10.60;68.60
27266;DHT22;14766;51.380;13.762;2023-02-19T10:38:31;10.60;67.50
27266;DHT22;14766;51.380;13.762;2023-02-19T10:41:11;10.60;67.40
27266;DHT22;14766;51.380;13.762;2023-02-19T10:43:49;10.60;67.30
27266;DHT22;14766;51.380;13.762;2023-02-19T10:46:20;10.60;67.30
27266;DHT22;14766;51.380;13.762;2023-02-19T10:49:00;10.60;67.10
27266;DHT22;14766;51.380;13.762;2023-02-19T10:51:35;10.60;67.20
27266;DHT22;14766;51.380;13.762;2023-02-19T10:56:42;10.70;67.20
27266;DHT22;14766;51.380;13.762;2023-02-19T10:59:23;10.70;67.60
27266;DHT22;14766;51.380;13.762;2023-02-19T11:02:07;10.70;66.40
27266;DHT22;14766;51.380;13.762;2023-02-19T11:04:47;10.80;65.10
27266;DHT22;14766;51.380;13.762;2023-02-19T11:07:27;10.90;65.90
27266;DHT22;14766;51.380;13.762;2023-02-19T11:09:55;11.10;66.20
27266;DHT22;14766;51.380;13.762;2023-02-19T11:12:28;11.20;65.50
27266;DHT22;14766;51.380;13.762;2023-02-19T11:14:56;11.30;63.90
27266;DHT22;14766;51.380;13.762;2023-02-19T11:17:27;11.40;63.00
27266;DHT22;14766;51.380;13.762;2023-02-19T11:19:57;11.50;63.00
27266;DHT22;14766;51.380;13.762;2023-02-19T11:22:32;11.60;63.40
27266;DHT22;14766;51.380;13.762;2023-02-19T11:25:06;11.60;63.00
27266;DHT22;14766;51.380;13.762;2023-02-19T11:30:31;11.60;62.00
27266;DHT22;14766;51.380;13.762;2023-02-19T11:36:37;11.60;61.80
27266;DHT22;14766;51.380;13.762;2023-02-19T11:38:38;11.60;61.50
27266;DHT22;14766;51.380;13.762;2023-02-19T11:41:27;11.60;61.70
27266;DHT22;14766;51.380;13.762;2023-02-19T11:44:05;11.60;61.50
27266;DHT22;14766;51.380;13.762;2023-02-19T12:00:27;11.50;61.50
27266;DHT22;14766;51.380;13.762;2023-02-19T12:05:39;11.50;62.20
27266;DHT22;14766;51.380;13.762;2023-02-19T12:08:25;11.50;60.60
27266;DHT22;14766;51.380;13.762;2023-02-19T12:36:42;12.10;58.30
27266;DHT22;14766;51.380;13.762;2023-02-19T12:44:41;12.20;58.60
27266;DHT22;14766;51.380;13.762;2023-02-19T12:47:16;12.20;58.40
27266;DHT22;14766;51.380;13.762;2023-02-19T12:49:55;12.20;57.40
27266;DHT22;14766;51.380;13.762;2023-02-19T12:52:29;12.20;57.30
27266;DHT22;14766;51.380;13.762;2023-02-19T12:55:29;12.20;57.20
27266;DHT22;14766;51.380;13.762;2023-02-19T12:58:02;12.20;56.40
27266;DHT22;14766;51.380;13.762;2023-02-19T13:00:46;12.20;56.00
27266;DHT22;14766;51.380;13.762;2023-02-19T13:03:26;12.30;56.70
27266;DHT22;14766;51.380;13.762;2023-02-19T13:08:33;12.40;55.70
27266;DHT22;14766;51.380;13.762;2023-02-19T13:11:17;12.40;54.80
27266;DHT22;14766;51.380;13.762;2023-02-19T13:13:56;12.40;54.70
27266;DHT22;14766;51.380;13.762;2023-02-19T13:16:27;12.40;54.90
27266;DHT22;14766;51.380;13.762;2023-02-19T13:19:01;12.30;54.40
27266;DHT22;14766;51.380;13.762;2023-02-19T13:21:34;12.30;53.40
27266;DHT22;14766;51.380;13.762;2023-02-19T13:24:27;12.30;53.50
27266;DHT22;14766;51.380;13.762;2023-02-19T13:27:09;12.20;53.10
27266;DHT22;14766;51.380;13.762;2023-02-19T13:29:53;12.20;53.30
27266;DHT22;14766;51.380;13.762;2023-02-19T13:37:54;12.20;53.50
27266;DHT22;14766;51.380;13.762;2023-02-19T13:40:30;12.20;53.70
27266;DHT22;14766;51.380;13.762;2023-02-19T13:43:34;12.20;53.20
27266;DHT22;14766;51.380;13.762;2023-02-19T13:46:05;12.20;53.50
27266;DHT22;14766;51.380;13.762;2023-02-19T13:48:35;12.10;54.10
27266;DHT22;14766;51.380;13.762;2023-02-19T13:54:00;12.10;52.60
27266;DHT22;14766;51.380;13.762;2023-02-19T13:59:23;12.00;52.30
27266;DHT22;14766;51.380;13.762;2023-02-19T14:14:37;11.50;53.60
27266;DHT22;14766;51.380;13.762;2023-02-19T14:19:52;11.40;53.60
27266;DHT22;14766;51.380;13.762;2023-02-19T14:25:35;11.30;54.40
27266;DHT22;14766;51.380;13.762;2023-02-19T14:30:55;11.30;54.80
27266;DHT22;14766;51.380;13.762;2023-02-19T14:33:27;11.30;55.00
27266;DHT22;14766;51.380;13.762;2023-02-19T14:38:57;11.30;54.70
27266;DHT22;14766;51.380;13.762;2023-02-19T14:41:30;11.30;54.30
27266;DHT22;14766;51.380;13.762;2023-02-19T14:44:00;11.30;53.60
27266;DHT22;14766;51.380;13.762;2023-02-19T14:46:34;11.30;53.30
27266;DHT22;14766;51.380;13.762;2023-02-19T14:49:14;11.20;53.80
27266;DHT22;14766;51.380;13.762;2023-02-19T14:51:44;11.20;54.10
27266;DHT22;14766;51.380;13.762;2023-02-19T14:54:28;11.20;54.10
27266;DHT22;14766;51.380;13.762;2023-02-19T14:56:59;11.20;53.40
27266;DHT22;14766;51.380;13.762;2023-02-19T14:59:29;11.10;52.90
27266;DHT22;14766;51.380;13.762;2023-02-19T15:02:23;11.10;53.30
27266;DHT22;14766;51.380;13.762;2023-02-19T15:04:53;11.10;53.50
27266;DHT22;14766;51.380;13.762;2023-02-19T15:07:27;11.10;53.60
27266;DHT22;14766;51.380;13.762;2023-02-19T15:10:02;11.00;53.60
27266;DHT22;14766;51.380;13.762;2023-02-19T15:12:44;11.00;53.90
27266;DHT22;14766;51.380;13.762;2023-02-19T15:15:17;11.00;54.00
27266;DHT22;14766;51.380;13.762;2023-02-19T15:17:47;11.10;54.00
27266;DHT22;14766;51.380;13.762;2023-02-19T15:20:18;11.00;53.60
27266;DHT22;14766;51.380;13.762;2023-02-19T15:22:46;11.00;53.70
27266;DHT22;14766;51.380;13.762;2023-02-19T15:25:19;11.00;53.40
27266;DHT22;14766;51.380;13.762;2023-02-19T15:27:49;10.90;53.10
27266;DHT22;14766;51.380;13.762;2023-02-19T15:30:25;10.90;53.30
27266;DHT22;14766;51.380;13.762;2023-02-19T15:32:56;10.90;53.60
27266;DHT22;14766;51.380;13.762;2023-02-19T15:35:26;10.80;53.50
27266;DHT22;14766;51.380;13.762;2023-02-19T15:37:54;10.80;54.00
27266;DHT22;14766;51.380;13.762;2023-02-19T15:40:30;10.80;53.70
27266;DHT22;14766;51.380;13.762;2023-02-19T15:42:59;10.80;53.70
27266;DHT22;14766;51.380;13.762;2023-02-19T15:45:40;10.80;54.00
27266;DHT22;14766;51.380;13.762;2023-02-19T15:49:38;10.70;53.10
27266;DHT22;14766;51.380;13.762;2023-02-19T15:51:38;10.70;53.20
27266;DHT22;14766;51.380;13.762;2023-02-19T15:56:54;10.70;53.90
27266;DHT22;14766;51.380;13.762;2023-02-19T15:59:30;10.70;54.20
27266;DHT22;14766;51.380;13.762;2023-02-19T16:01:59;10.60;54.50
27266;DHT22;14766;51.380;13.762;2023-02-19T16:04:29;10.60;54.60
27266;DHT22;14766;51.380;13.762;2023-02-19T16:06:59;10.60;54.40
27266;DHT22;14766;51.380;13.762;2023-02-19T16:09:40;10.60;54.40
27266;DHT22;14766;51.380;13.762;2023-02-19T16:12:25;10.50;54.30
27266;DHT22;14766;51.380;13.762;2023-02-19T16:14:54;10.50;54.30
27266;DHT22;14766;51.380;13.762;2023-02-19T16:17:22;10.50;54.70
27266;DHT22;14766;51.380;13.762;2023-02-19T16:20:01;10.40;54.50
27266;DHT22;14766;51.380;13.762;2023-02-19T16:22:38;10.40;54.50
27266;DHT22;14766;51.380;13.762;2023-02-19T16:25:25;10.30;54.70
27266;DHT22;14766;51.380;13.762;2023-02-19T16:27:53;10.30;54.90
27266;DHT22;14766;51.380;13.762;2023-02-19T16:30:34;10.20;55.00
27266;DHT22;14766;51.380;13.762;2023-02-19T16:35:49;10.10;54.90
27266;DHT22;14766;51.380;13.762;2023-02-19T16:38:21;10.10;55.10
27266;DHT22;14766;51.380;13.762;2023-02-19T16:43:38;10.00;55.30
27266;DHT22;14766;51.380;13.762;2023-02-19T16:46:08;9.90;55.60
27266;DHT22;14766;51.380;13.762;2023-02-19T16:48:45;9.90;55.70
27266;DHT22;14766;51.380;13.762;2023-02-19T16:51:24;9.80;55.80
27266;DHT22;14766;51.380;13.762;2023-02-19T16:53:53;9.80;56.00
27266;DHT22;14766;51.380;13.762;2023-02-19T16:56:24;9.80;56.20
27266;DHT22;14766;51.380;13.762;2023-02-19T16:58:51;9.80;56.40
27266;DHT22;14766;51.380;13.762;2023-02-19T17:01:18;9.80;56.30
27266;DHT22;14766;51.380;13.762;2023-02-19T17:03:46;9.80;56.50
27266;DHT22;14766;51.380;13.762;2023-02-19T17:06:14;9.80;56.70
27266;DHT22;14766;51.380;13.762;2023-02-19T17:08:43;9.80;56.70
27266;DHT22;14766;51.380;13.762;2023-02-19T17:11:12;9.80;56.80
27266;DHT22;14766;51.380;13.762;2023-02-19T17:13:41;9.80;56.70
27266;DHT22;14766;51.380;13.762;2023-02-19T17:16:16;9.80;56.50
27266;DHT22;14766;51.380;13.762;2023-02-19T17:18:44;9.80;56.50
27266;DHT22;14766;51.380;13.762;2023-02-19T17:21:17;9.70;56.60
27266;DHT22;14766;51.380;13.762;2023-02-19T17:23:45;9.80;56.80
27266;DHT22;14766;51.380;13.762;2023-02-19T17:26:18;9.70;56.70
27266;DHT22;14766;51.380;13.762;2023-02-19T17:28:45;9.70;56.80
27266;DHT22;14766;51.380;13.762;2023-02-19T17:31:13;9.70;57.70
27266;DHT22;14766;51.380;13.762;2023-02-19T17:33:40;9.70;56.90
27266;DHT22;14766;51.380;13.762;2023-02-19T17:38:53;9.70;57.00
27266;DHT22;14766;51.380;13.762;2023-02-19T17:41:20;9.70;57.00
27266;DHT22;14766;51.380;13.762;2023-02-19T17:43:48;9.70;57.10
27266;DHT22;14766;51.380;13.762;2023-02-19T17:46:17;9.70;57.20
27266;DHT22;14766;51.380;13.762;2023-02-19T17:48:45;9.70;57.30
27266;DHT22;14766;51.380;13.762;2023-02-19T17:51:12;9.70;57.20
27266;DHT22;14766;51.380;13.762;2023-02-19T17:53:40;9.70;57.50
27266;DHT22;14766;51.380;13.762;2023-02-19T17:56:08;9.60;57.50
27266;DHT22;14766;51.380;13.762;2023-02-19T17:58:36;9.60;57.50
27266;DHT22;14766;51.380;13.762;2023-02-19T18:01:03;9.60;57.60
27266;DHT22;14766;51.380;13.762;2023-02-19T18:03:31;9.60;57.40